sensor_id;sensor_type;location;lat;lon;timestamp;temperature;humidity
67890;DHT22;54685;52.082;5.426;2023-04-16T00:01:47;8.80;99.90
67890;DHT22;54685;52.082;5.426;2023-04-16T00:04:14;8.80;99.90
67890;DHT22;54685;52.082;5.426;2023-04-16T00:06:41;8.80;99.90
67890;DHT22;54685;52.082;5.426;2023-04-16T00:09:08;8.80;99.90
67890;DHT22;54685;52.082;5.426;2023-04-16T00:11:35;8.80;99.90
67890;DHT22;54685;52.082;5.426;2023-04-16T00:14:02;8.80;99.90
67890;DHT22;54685;52.082;5.426;2023-04-16T00:16:29;8.80;99.90
67890;DHT22;54685;52.082;5.426;2023-04-16T00:18:55;8.80;99.90
67890;DHT22;54685;52.082;5.426;2023-04-16T00:21:22;8.80;99.90
67890;DHT22;54685;52.082;5.426;2023-04-16T00:23:49;8.80;99.90
67890;DHT22;54685;52.082;5.426;2023-04-16T00:26:16;8.80;99.90
67890;DHT22;54685;52.082;5.426;2023-04-16T00:28:44;8.80;99.90
67890;DHT22;54685;52.082;5.426;2023-04-16T00:31:10;8.80;99.90
67890;DHT22;54685;52.082;5.426;2023-04-16T00:33:37;8.80;99.90
67890;DHT22;54685;52.082;5.426;2023-04-16T00:36:04;8.80;99.90
67890;DHT22;54685;52.082;5.426;2023-04-16T00:38:31;8.80;99.90
67890;DHT22;54685;52.082;5.426;2023-04-16T00:40:58;8.80;99.90
67890;DHT22;54685;52.082;5.426;2023-04-16T00:43:25;8.80;99.90
67890;DHT22;54685;52.082;5.426;2023-04-16T00:45:52;8.80;99.90
67890;DHT22;54685;52.082;5.426;2023-04-16T00:48:21;8.70;99.90
67890;DHT22;54685;52.082;5.426;2023-04-16T00:50:49;8.80;99.90
67890;DHT22;54685;52.082;5.426;2023-04-16T00:53:16;8.70;99.90
67890;DHT22;54685;52.082;5.426;2023-04-16T00:55:43;8.70;99.90
67890;DHT22;54685;52.082;5.426;2023-04-16T00:58:10;8.70;99.90
67890;DHT22;54685;52.082;5.426;2023-04-16T01:00:37;8.70;99.90
67890;DHT22;54685;52.082;5.426;2023-04-16T01:03:03;8.70;99.90
67890;DHT22;54685;52.082;5.426;2023-04-16T01:05:31;8.70;99.90
67890;DHT22;54685;52.082;5.426;2023-04-16T01:07:58;8.70;99.90
67890;DHT22;54685;52.082;5.426;2023-04-16T01:10:26;8.70;99.90
67890;DHT22;54685;52.082;5.426;2023-04-16T01:12:53;8.70;99.90
67890;DHT22;54685;52.082;5.426;2023-04-16T01:15:20;8.70;99.90
67890;DHT22;54685;52.082;5.426;2023-04-16T01:17:47;8.70;99.90
67890;DHT22;54685;52.082;5.426;2023-04-16T01:20:14;8.70;99.90
67890;DHT22;54685;52.082;5.426;2023-04-16T01:22:41;8.70;99.90
67890;DHT22;54685;52.082;5.426;2023-04-16T01:25:13;8.70;99.90
67890;DHT22;54685;52.082;5.426;2023-04-16T01:27:39;8.70;99.90
67890;DHT22;54685;52.082;5.426;2023-04-16T01:30:07;8.70;99.90
67890;DHT22;54685;52.082;5.426;2023-04-16T01:32:53;8.70;99.90
67890;DHT22;54685;52.082;5.426;2023-04-16T01:35:20;8.60;99.90
67890;DHT22;54685;52.082;5.426;2023-04-16T01:37:49;8.70;99.90
67890;DHT22;54685;52.082;5.426;2023-04-16T01:40:16;8.60;99.90
67890;DHT22;54685;52.082;5.426;2023-04-16T01:42:43;8.70;99.90
67890;DHT22;54685;52.082;5.426;2023-04-16T01:45:10;8.70;99.90
67890;DHT22;54685;52.082;5.426;2023-04-16T01:47:37;8.60;99.90
67890;DHT22;54685;52.082;5.426;2023-04-16T01:50:04;8.60;99.90
67890;DHT22;54685;52.082;5.426;2023-04-16T01:52:31;8.60;99.90
67890;DHT22;54685;52.082;5.426;2023-04-16T01:54:58;8.60;99.90
67890;DHT22;54685;52.082;5.426;2023-04-16T01:57:25;8.60;99.90
67890;DHT22;54685;52.082;5.426;2023-04-16T01:59:52;8.60;99.90
67890;DHT22;54685;52.082;5.426;2023-04-16T02:02:20;8.60;99.90
67890;DHT22;54685;52.082;5.426;2023-04-16T02:04:51;8.60;99.90
67890;DHT22;54685;52.082;5.426;2023-04-16T02:07:17;8.70;99.90
67890;DHT22;54685;52.082;5.426;2023-04-16T02:09:44;8.60;99.90
67890;DHT22;54685;52.082;5.426;2023-04-16T02:12:11;8.60;99.90
67890;DHT22;54685;52.082;5.426;2023-04-16T02:14:37;8.70;99.90
67890;DHT22;54685;52.082;5.426;2023-04-16T02:17:04;8.70;99.90
67890;DHT22;54685;52.082;5.426;2023-04-16T02:19:36;8.70;99.90
67890;DHT22;54685;52.082;5.426;2023-04-16T02:22:03;8.70;99.90
67890;DHT22;54685;52.082;5.426;2023-04-16T02:24:30;8.70;99.90
67890;DHT22;54685;52.082;5.426;2023-04-16T02:26:58;8.70;99.90
67890;DHT22;54685;52.082;5.426;2023-04-16T02:29:25;8.70;99.90
67890;DHT22;54685;52.082;5.426;2023-04-16T02:32:02;8.70;99.90
67890;DHT22;54685;52.082;5.426;2023-04-16T02:34:30;8.70;99.90
67890;DHT22;54685;52.082;5.426;2023-04-16T02:36:57;8.80;99.90
67890;DHT22;54685;52.082;5.426;2023-04-16T02:39:24;8.80;99.90
67890;DHT22;54685;52.082;5.426;2023-04-16T02:41:52;8.70;99.90
67890;DHT22;54685;52.082;5.426;2023-04-16T02:44:19;8.70;99.90
67890;DHT22;54685;52.082;5.426;2023-04-16T02:46:46;8.70;99.90
67890;DHT22;54685;52.082;5.426;2023-04-16T02:49:13;8.80;99.90
67890;DHT22;54685;52.082;5.426;2023-04-16T02:51:40;8.80;99.90
67890;DHT22;54685;52.082;5.426;2023-04-16T02:54:06;8.80;99.90
67890;DHT22;54685;52.082;5.426;2023-04-16T02:56:33;8.80;99.90
67890;DHT22;54685;52.082;5.426;2023-04-16T02:59:00;8.80;99.90
67890;DHT22;54685;52.082;5.426;2023-04-16T03:01:27;8.70;99.90
67890;DHT22;54685;52.082;5.426;2023-04-16T03:03:54;8.80;99.90
67890;DHT22;54685;52.082;5.426;2023-04-16T03:06:21;8.80;99.90
67890;DHT22;54685;52.082;5.426;2023-04-16T03:08:49;8.70;99.90
67890;DHT22;54685;52.082;5.426;2023-04-16T03:11:15;8.80;99.90
67890;DHT22;54685;52.082;5.426;2023-04-16T03:13:43;8.80;99.90
67890;DHT22;54685;52.082;5.426;2023-04-16T03:16:09;8.80;99.90
67890;DHT22;54685;52.082;5.426;2023-04-16T03:18:36;8.80;99.90
67890;DHT22;54685;52.082;5.426;2023-04-16T03:21:03;8.80;99.90
67890;DHT22;54685;52.082;5.426;2023-04-16T03:23:30;8.80;99.90
67890;DHT22;54685;52.082;5.426;2023-04-16T03:25:57;8.80;99.90
67890;DHT22;54685;52.082;5.426;2023-04-16T03:28:24;8.80;99.90
67890;DHT22;54685;52.082;5.426;2023-04-16T03:30:52;8.80;99.90
67890;DHT22;54685;52.082;5.426;2023-04-16T03:33:19;8.80;99.90
67890;DHT22;54685;52.082;5.426;2023-04-16T03:35:53;8.80;99.90
67890;DHT22;54685;52.082;5.426;2023-04-16T03:38:20;8.80;99.90
67890;DHT22;54685;52.082;5.426;2023-04-16T03:40:46;8.80;99.90
67890;DHT22;54685;52.082;5.426;2023-04-16T03:43:14;8.80;99.90
67890;DHT22;54685;52.082;5.426;2023-04-16T03:45:45;8.80;99.90
67890;DHT22;54685;52.082;5.426;2023-04-16T03:48:12;8.80;99.90
67890;DHT22;54685;52.082;5.426;2023-04-16T03:50:39;8.80;99.90
67890;DHT22;54685;52.082;5.426;2023-04-16T03:53:08;8.80;99.90
67890;DHT22;54685;52.082;5.426;2023-04-16T03:55:34;8.80;99.90
67890;DHT22;54685;52.082;5.426;2023-04-16T03:58:01;8.80;99.90
67890;DHT22;54685;52.082;5.426;2023-04-16T04:00:31;8.80;99.90
67890;DHT22;54685;52.082;5.426;2023-04-16T04:03:10;8.80;99.90
67890;DHT22;54685;52.082;5.426;2023-04-16T04:05:41;8.80;99.90
67890;DHT22;54685;52.082;5.426;2023-04-16T04:08:10;8.80;99.90
67890;DHT22;54685;52.082;5.426;2023-04-16T04:10:37;8.80;99.90
67890;DHT22;54685;52.082;5.426;2023-04-16T04:13:05;8.80;99.90
67890;DHT22;54685;52.082;5.426;2023-04-16T04:15:33;8.80;99.90
67890;DHT22;54685;52.082;5.426;2023-04-16T04:18:00;8.80;99.90
67890;DHT22;54685;52.082;5.426;2023-04-16T04:20:27;8.80;99.90
67890;DHT22;54685;52.082;5.426;2023-04-16T04:22:54;8.80;99.90
67890;DHT22;54685;52.082;5.426;2023-04-16T04:25:24;8.80;99.90
67890;DHT22;54685;52.082;5.426;2023-04-16T04:27:51;8.80;99.90
67890;DHT22;54685;52.082;5.426;2023-04-16T04:30:17;8.80;99.90
67890;DHT22;54685;52.082;5.426;2023-04-16T04:32:44;8.80;99.90
67890;DHT22;54685;52.082;5.426;2023-04-16T04:35:12;8.80;99.90
67890;DHT22;54685;52.082;5.426;2023-04-16T04:37:40;8.80;99.90
67890;DHT22;54685;52.082;5.426;2023-04-16T04:40:13;8.70;99.90
67890;DHT22;54685;52.082;5.426;2023-04-16T04:42:39;8.70;99.90
67890;DHT22;54685;52.082;5.426;2023-04-16T04:45:07;8.70;99.90
67890;DHT22;54685;52.082;5.426;2023-04-16T04:47:34;8.70;99.90
67890;DHT22;54685;52.082;5.426;2023-04-16T04:50:01;8.70;99.90
67890;DHT22;54685;52.082;5.426;2023-04-16T04:52:28;8.70;99.90
67890;DHT22;54685;52.082;5.426;2023-04-16T04:54:56;8.80;99.90
67890;DHT22;54685;52.082;5.426;2023-04-16T04:57:22;8.70;99.90
67890;DHT22;54685;52.082;5.426;2023-04-16T04:59:52;8.70;99.90
67890;DHT22;54685;52.082;5.426;2023-04-16T05:02:19;8.70;99.90
67890;DHT22;54685;52.082;5.426;2023-04-16T05:04:46;8.70;99.90
67890;DHT22;54685;52.082;5.426;2023-04-16T05:07:13;8.70;99.90
67890;DHT22;54685;52.082;5.426;2023-04-16T05:09:40;8.70;99.90
67890;DHT22;54685;52.082;5.426;2023-04-16T05:12:06;8.70;99.90
67890;DHT22;54685;52.082;5.426;2023-04-16T05:14:33;8.70;99.90
67890;DHT22;54685;52.082;5.426;2023-04-16T05:17:01;8.70;99.90
67890;DHT22;54685;52.082;5.426;2023-04-16T05:19:28;8.70;99.90
67890;DHT22;54685;52.082;5.426;2023-04-16T05:21:55;8.70;99.90
67890;DHT22;54685;52.082;5.426;2023-04-16T05:24:22;8.70;99.90
67890;DHT22;54685;52.082;5.426;2023-04-16T05:26:48;8.70;99.90
67890;DHT22;54685;52.082;5.426;2023-04-16T05:29:15;8.70;99.90
67890;DHT22;54685;52.082;5.426;2023-04-16T05:31:42;8.70;99.90
67890;DHT22;54685;52.082;5.426;2023-04-16T05:34:09;8.70;99.90
67890;DHT22;54685;52.082;5.426;2023-04-16T05:36:36;8.70;99.90
67890;DHT22;54685;52.082;5.426;2023-04-16T05:39:03;8.70;99.90
67890;DHT22;54685;52.082;5.426;2023-04-16T05:41:30;8.70;99.90
67890;DHT22;54685;52.082;5.426;2023-04-16T05:43:56;8.70;99.90
67890;DHT22;54685;52.082;5.426;2023-04-16T05:46:23;8.70;99.90
67890;DHT22;54685;52.082;5.426;2023-04-16T05:48:50;8.70;99.90
67890;DHT22;54685;52.082;5.426;2023-04-16T05:51:17;8.70;99.90
67890;DHT22;54685;52.082;5.426;2023-04-16T05:53:47;8.80;99.90
67890;DHT22;54685;52.082;5.426;2023-04-16T05:56:13;8.80;99.90
67890;DHT22;54685;52.082;5.426;2023-04-16T05:58:40;8.80;99.90
67890;DHT22;54685;52.082;5.426;2023-04-16T06:01:07;8.80;99.90
67890;DHT22;54685;52.082;5.426;2023-04-16T06:03:34;8.80;99.90
67890;DHT22;54685;52.082;5.426;2023-04-16T06:06:00;8.80;99.90
67890;DHT22;54685;52.082;5.426;2023-04-16T06:08:27;8.80;99.90
67890;DHT22;54685;52.082;5.426;2023-04-16T06:10:54;8.80;99.90
67890;DHT22;54685;52.082;5.426;2023-04-16T06:13:22;8.80;99.90
67890;DHT22;54685;52.082;5.426;2023-04-16T06:15:48;8.80;99.90
67890;DHT22;54685;52.082;5.426;2023-04-16T06:18:15;8.90;99.90
67890;DHT22;54685;52.082;5.426;2023-04-16T06:20:42;8.90;99.90
67890;DHT22;54685;52.082;5.426;2023-04-16T06:23:09;8.90;99.90
67890;DHT22;54685;52.082;5.426;2023-04-16T06:25:36;8.90;99.90
67890;DHT22;54685;52.082;5.426;2023-04-16T06:28:03;8.90;99.90
67890;DHT22;54685;52.082;5.426;2023-04-16T06:30:29;9.00;99.90
67890;DHT22;54685;52.082;5.426;2023-04-16T06:32:59;8.90;99.90
67890;DHT22;54685;52.082;5.426;2023-04-16T06:35:26;8.90;99.90
67890;DHT22;54685;52.082;5.426;2023-04-16T06:37:52;8.90;99.90
67890;DHT22;54685;52.082;5.426;2023-04-16T06:40:19;8.90;99.90
67890;DHT22;54685;52.082;5.426;2023-04-16T06:42:46;8.90;99.90
67890;DHT22;54685;52.082;5.426;2023-04-16T06:45:12;8.90;99.90
67890;DHT22;54685;52.082;5.426;2023-04-16T06:47:39;9.00;99.90
67890;DHT22;54685;52.082;5.426;2023-04-16T06:50:06;9.00;99.90
67890;DHT22;54685;52.082;5.426;2023-04-16T06:52:34;9.00;99.90
67890;DHT22;54685;52.082;5.426;2023-04-16T06:55:01;9.10;99.90
67890;DHT22;54685;52.082;5.426;2023-04-16T06:57:29;9.10;99.90
67890;DHT22;54685;52.082;5.426;2023-04-16T06:59:56;9.10;99.90
67890;DHT22;54685;52.082;5.426;2023-04-16T07:02:23;9.10;99.90
67890;DHT22;54685;52.082;5.426;2023-04-16T07:04:50;9.10;99.90
67890;DHT22;54685;52.082;5.426;2023-04-16T07:07:17;9.20;99.90
67890;DHT22;54685;52.082;5.426;2023-04-16T07:09:44;9.20;99.90
67890;DHT22;54685;52.082;5.426;2023-04-16T07:12:11;9.20;99.90
67890;DHT22;54685;52.082;5.426;2023-04-16T07:14:38;9.20;99.90
67890;DHT22;54685;52.082;5.426;2023-04-16T07:17:05;9.20;99.90
67890;DHT22;54685;52.082;5.426;2023-04-16T07:19:32;9.20;99.90
67890;DHT22;54685;52.082;5.426;2023-04-16T07:21:59;9.20;99.90
67890;DHT22;54685;52.082;5.426;2023-04-16T07:24:26;9.30;99.90
67890;DHT22;54685;52.082;5.426;2023-04-16T07:26:52;9.30;99.90
67890;DHT22;54685;52.082;5.426;2023-04-16T07:29:19;9.20;99.90
67890;DHT22;54685;52.082;5.426;2023-04-16T07:31:46;9.20;99.90
67890;DHT22;54685;52.082;5.426;2023-04-16T07:34:14;9.20;99.90
67890;DHT22;54685;52.082;5.426;2023-04-16T07:36:41;9.20;99.90
67890;DHT22;54685;52.082;5.426;2023-04-16T07:39:08;9.30;99.90
67890;DHT22;54685;52.082;5.426;2023-04-16T07:41:36;9.30;99.90
67890;DHT22;54685;52.082;5.426;2023-04-16T07:44:03;9.30;99.90
67890;DHT22;54685;52.082;5.426;2023-04-16T07:46:30;9.30;99.90
67890;DHT22;54685;52.082;5.426;2023-04-16T07:49:13;9.30;99.90
67890;DHT22;54685;52.082;5.426;2023-04-16T07:51:40;9.40;99.90
67890;DHT22;54685;52.082;5.426;2023-04-16T07:54:07;9.30;99.90
67890;DHT22;54685;52.082;5.426;2023-04-16T07:56:33;9.30;99.90
67890;DHT22;54685;52.082;5.426;2023-04-16T07:59:00;9.40;99.90
67890;DHT22;54685;52.082;5.426;2023-04-16T08:01:47;9.40;99.90
67890;DHT22;54685;52.082;5.426;2023-04-16T08:04:14;9.40;99.90
67890;DHT22;54685;52.082;5.426;2023-04-16T08:06:43;9.40;99.90
67890;DHT22;54685;52.082;5.426;2023-04-16T08:09:09;9.50;99.90
67890;DHT22;54685;52.082;5.426;2023-04-16T08:11:37;9.50;99.90
67890;DHT22;54685;52.082;5.426;2023-04-16T08:14:03;9.50;99.90
67890;DHT22;54685;52.082;5.426;2023-04-16T08:16:30;9.50;99.90
67890;DHT22;54685;52.082;5.426;2023-04-16T08:18:57;9.50;99.90
67890;DHT22;54685;52.082;5.426;2023-04-16T08:21:27;9.50;99.90
67890;DHT22;54685;52.082;5.426;2023-04-16T08:23:54;9.50;99.90
67890;DHT22;54685;52.082;5.426;2023-04-16T08:26:21;9.50;99.90
67890;DHT22;54685;52.082;5.426;2023-04-16T08:28:48;9.60;99.90
67890;DHT22;54685;52.082;5.426;2023-04-16T08:31:15;9.60;99.90
67890;DHT22;54685;52.082;5.426;2023-04-16T08:33:41;9.70;99.90
67890;DHT22;54685;52.082;5.426;2023-04-16T08:36:08;9.70;99.90
67890;DHT22;54685;52.082;5.426;2023-04-16T08:38:35;9.70;99.90
67890;DHT22;54685;52.082;5.426;2023-04-16T08:41:05;9.70;99.90
67890;DHT22;54685;52.082;5.426;2023-04-16T08:43:33;9.80;99.90
67890;DHT22;54685;52.082;5.426;2023-04-16T08:46:04;9.80;99.90
67890;DHT22;54685;52.082;5.426;2023-04-16T08:48:32;9.80;99.90
67890;DHT22;54685;52.082;5.426;2023-04-16T08:51:01;9.80;99.90
67890;DHT22;54685;52.082;5.426;2023-04-16T08:53:51;9.80;99.90
67890;DHT22;54685;52.082;5.426;2023-04-16T08:56:20;9.90;99.90
67890;DHT22;54685;52.082;5.426;2023-04-16T08:58:49;9.90;99.90
67890;DHT22;54685;52.082;5.426;2023-04-16T09:01:17;9.90;99.90
67890;DHT22;54685;52.082;5.426;2023-04-16T09:03:46;10.00;99.90
67890;DHT22;54685;52.082;5.426;2023-04-16T09:06:15;10.00;99.90
67890;DHT22;54685;52.082;5.426;2023-04-16T09:08:45;10.00;99.90
67890;DHT22;54685;52.082;5.426;2023-04-16T09:11:18;10.00;99.90
67890;DHT22;54685;52.082;5.426;2023-04-16T09:13:46;10.00;99.90
67890;DHT22;54685;52.082;5.426;2023-04-16T09:16:13;10.00;99.90
67890;DHT22;54685;52.082;5.426;2023-04-16T09:18:40;10.10;99.90
67890;DHT22;54685;52.082;5.426;2023-04-16T09:21:09;10.10;99.90
67890;DHT22;54685;52.082;5.426;2023-04-16T09:23:36;10.10;99.90
67890;DHT22;54685;52.082;5.426;2023-04-16T09:26:04;10.10;99.90
67890;DHT22;54685;52.082;5.426;2023-04-16T09:28:41;10.20;99.90
67890;DHT22;54685;52.082;5.426;2023-04-16T09:31:10;10.20;99.90
67890;DHT22;54685;52.082;5.426;2023-04-16T09:33:38;10.20;99.90
67890;DHT22;54685;52.082;5.426;2023-04-16T09:36:05;10.20;99.90
67890;DHT22;54685;52.082;5.426;2023-04-16T09:38:50;10.10;99.90
67890;DHT22;54685;52.082;5.426;2023-04-16T09:41:18;10.20;99.90
67890;DHT22;54685;52.082;5.426;2023-04-16T09:44:03;10.30;99.90
67890;DHT22;54685;52.082;5.426;2023-04-16T09:46:41;10.30;99.90
67890;DHT22;54685;52.082;5.426;2023-04-16T09:49:16;10.30;99.90
67890;DHT22;54685;52.082;5.426;2023-04-16T09:51:46;10.30;99.90
67890;DHT22;54685;52.082;5.426;2023-04-16T09:54:15;10.30;99.90
67890;DHT22;54685;52.082;5.426;2023-04-16T09:56:43;10.40;99.90
67890;DHT22;54685;52.082;5.426;2023-04-16T09:59:18;10.40;99.90
67890;DHT22;54685;52.082;5.426;2023-04-16T10:01:46;10.40;99.90
67890;DHT22;54685;52.082;5.426;2023-04-16T10:04:15;10.50;99.90
67890;DHT22;54685;52.082;5.426;2023-04-16T10:06:42;10.40;99.90
67890;DHT22;54685;52.082;5.426;2023-04-16T10:09:10;10.40;99.90
67890;DHT22;54685;52.082;5.426;2023-04-16T10:11:37;10.40;99.90
67890;DHT22;54685;52.082;5.426;2023-04-16T10:14:04;10.40;99.90
67890;DHT22;54685;52.082;5.426;2023-04-16T10:16:31;10.40;99.90
67890;DHT22;54685;52.082;5.426;2023-04-16T10:18:59;10.50;99.90
67890;DHT22;54685;52.082;5.426;2023-04-16T10:21:26;10.40;99.90
67890;DHT22;54685;52.082;5.426;2023-04-16T10:23:59;10.50;99.90
67890;DHT22;54685;52.082;5.426;2023-04-16T10:26:28;10.50;99.90
67890;DHT22;54685;52.082;5.426;2023-04-16T10:28:57;10.50;99.90
67890;DHT22;54685;52.082;5.426;2023-04-16T10:31:24;10.50;99.90
67890;DHT22;54685;52.082;5.426;2023-04-16T10:33:52;10.50;99.90
67890;DHT22;54685;52.082;5.426;2023-04-16T10:36:24;10.60;99.90
67890;DHT22;54685;52.082;5.426;2023-04-16T10:38:56;10.60;99.90
67890;DHT22;54685;52.082;5.426;2023-04-16T10:41:25;10.60;99.90
67890;DHT22;54685;52.082;5.426;2023-04-16T10:43:52;10.60;99.90
67890;DHT22;54685;52.082;5.426;2023-04-16T10:46:33;10.60;99.90
67890;DHT22;54685;52.082;5.426;2023-04-16T10:49:01;10.70;99.90
67890;DHT22;54685;52.082;5.426;2023-04-16T10:51:29;10.70;99.90
67890;DHT22;54685;52.082;5.426;2023-04-16T10:56:31;10.80;99.90
67890;DHT22;54685;52.082;5.426;2023-04-16T10:58:58;10.80;99.90
67890;DHT22;54685;52.082;5.426;2023-04-16T11:01:30;10.80;99.90
67890;DHT22;54685;52.082;5.426;2023-04-16T11:04:01;10.80;99.90
67890;DHT22;54685;52.082;5.426;2023-04-16T11:07:04;10.80;99.90
67890;DHT22;54685;52.082;5.426;2023-04-16T11:09:59;10.80;99.90
67890;DHT22;54685;52.082;5.426;2023-04-16T11:15:12;10.70;99.90
67890;DHT22;54685;52.082;5.426;2023-04-16T11:17:43;10.80;99.90
67890;DHT22;54685;52.082;5.426;2023-04-16T11:20:19;10.80;99.90
67890;DHT22;54685;52.082;5.426;2023-04-16T11:22:48;10.80;99.90
67890;DHT22;54685;52.082;5.426;2023-04-16T11:25:36;10.70;99.90
67890;DHT22;54685;52.082;5.426;2023-04-16T11:28:03;10.80;99.90
67890;DHT22;54685;52.082;5.426;2023-04-16T11:30:39;10.80;99.90
67890;DHT22;54685;52.082;5.426;2023-04-16T11:33:08;10.80;99.90
67890;DHT22;54685;52.082;5.426;2023-04-16T11:35:37;10.80;99.90
67890;DHT22;54685;52.082;5.426;2023-04-16T11:38:07;10.90;99.90
67890;DHT22;54685;52.082;5.426;2023-04-16T11:40:34;10.90;99.90
67890;DHT22;54685;52.082;5.426;2023-04-16T11:43:13;10.90;99.90
67890;DHT22;54685;52.082;5.426;2023-04-16T11:45:57;10.90;99.90
67890;DHT22;54685;52.082;5.426;2023-04-16T11:48:24;10.90;99.90
67890;DHT22;54685;52.082;5.426;2023-04-16T11:50:57;10.90;99.90
67890;DHT22;54685;52.082;5.426;2023-04-16T11:53:26;10.90;99.90
67890;DHT22;54685;52.082;5.426;2023-04-16T11:56:25;10.90;99.90
67890;DHT22;54685;52.082;5.426;2023-04-16T11:59:13;10.90;99.90
67890;DHT22;54685;52.082;5.426;2023-04-16T12:01:48;11.00;99.90
67890;DHT22;54685;52.082;5.426;2023-04-16T12:04:17;10.90;99.90
67890;DHT22;54685;52.082;5.426;2023-04-16T12:09:30;10.90;99.90
67890;DHT22;54685;52.082;5.426;2023-04-16T12:12:27;10.90;99.90
67890;DHT22;54685;52.082;5.426;2023-04-16T12:14:57;10.90;99.90
67890;DHT22;54685;52.082;5.426;2023-04-16T12:17:31;10.90;99.90
67890;DHT22;54685;52.082;5.426;2023-04-16T12:20:02;10.90;99.90
67890;DHT22;54685;52.082;5.426;2023-04-16T12:22:33;11.00;99.90
67890;DHT22;54685;52.082;5.426;2023-04-16T12:25:16;11.00;99.90
67890;DHT22;54685;52.082;5.426;2023-04-16T12:27:50;11.00;99.90
67890;DHT22;54685;52.082;5.426;2023-04-16T12:30:20;11.10;99.90
67890;DHT22;54685;52.082;5.426;2023-04-16T12:32:49;11.10;99.90
67890;DHT22;54685;52.082;5.426;2023-04-16T12:35:31;11.10;99.90
67890;DHT22;54685;52.082;5.426;2023-04-16T12:38:01;11.20;99.90
67890;DHT22;54685;52.082;5.426;2023-04-16T12:40:29;11.20;99.90
67890;DHT22;54685;52.082;5.426;2023-04-16T12:42:56;11.20;99.90
67890;DHT22;54685;52.082;5.426;2023-04-16T12:45:23;11.20;99.90
67890;DHT22;54685;52.082;5.426;2023-04-16T12:47:50;11.20;99.90
67890;DHT22;54685;52.082;5.426;2023-04-16T12:50:17;11.20;99.90
67890;DHT22;54685;52.082;5.426;2023-04-16T12:52:50;11.20;99.90
67890;DHT22;54685;52.082;5.426;2023-04-16T12:55:20;11.20;99.90
67890;DHT22;54685;52.082;5.426;2023-04-16T12:57:47;11.20;99.90
67890;DHT22;54685;52.082;5.426;2023-04-16T13:00:15;11.20;99.90
67890;DHT22;54685;52.082;5.426;2023-04-16T13:02:44;11.20;99.90
67890;DHT22;54685;52.082;5.426;2023-04-16T13:05:36;11.30;99.90
67890;DHT22;54685;52.082;5.426;2023-04-16T13:08:03;11.20;99.90
67890;DHT22;54685;52.082;5.426;2023-04-16T13:10:30;11.20;99.90
67890;DHT22;54685;52.082;5.426;2023-04-16T13:12:56;11.30;99.90
67890;DHT22;54685;52.082;5.426;2023-04-16T13:15:23;11.30;99.90
67890;DHT22;54685;52.082;5.426;2023-04-16T13:17:50;11.40;99.90
67890;DHT22;54685;52.082;5.426;2023-04-16T13:20:17;11.40;99.90
67890;DHT22;54685;52.082;5.426;2023-04-16T13:22:44;11.50;99.90
67890;DHT22;54685;52.082;5.426;2023-04-16T13:25:11;11.50;99.90
67890;DHT22;54685;52.082;5.426;2023-04-16T13:28:17;11.60;99.90
67890;DHT22;54685;52.082;5.426;2023-04-16T13:30:44;11.70;99.90
67890;DHT22;54685;52.082;5.426;2023-04-16T13:33:31;11.60;99.90
67890;DHT22;54685;52.082;5.426;2023-04-16T13:35:58;11.70;99.90
67890;DHT22;54685;52.082;5.426;2023-04-16T13:38:25;11.80;99.90
67890;DHT22;54685;52.082;5.426;2023-04-16T13:41:20;11.80;99.90
67890;DHT22;54685;52.082;5.426;2023-04-16T13:43:57;11.80;99.90
67890;DHT22;54685;52.082;5.426;2023-04-16T13:46:32;11.80;99.90
67890;DHT22;54685;52.082;5.426;2023-04-16T13:48:59;11.80;99.90
67890;DHT22;54685;52.082;5.426;2023-04-16T13:51:32;11.80;99.90
67890;DHT22;54685;52.082;5.426;2023-04-16T13:54:01;11.80;99.90
67890;DHT22;54685;52.082;5.426;2023-04-16T13:56:27;11.70;99.90
67890;DHT22;54685;52.082;5.426;2023-04-16T13:58:54;11.70;99.90
67890;DHT22;54685;52.082;5.426;2023-04-16T14:01:21;11.50;99.90
67890;DHT22;54685;52.082;5.426;2023-04-16T14:03:48;11.60;99.90
67890;DHT22;54685;52.082;5.426;2023-04-16T14:06:15;11.60;99.90
67890;DHT22;54685;52.082;5.426;2023-04-16T14:08:43;11.60;99.90
67890;DHT22;54685;52.082;5.426;2023-04-16T14:11:11;11.60;99.90
67890;DHT22;54685;52.082;5.426;2023-04-16T14:13:38;11.70;99.90
67890;DHT22;54685;52.082;5.426;2023-04-16T14:16:04;11.80;99.90
67890;DHT22;54685;52.082;5.426;2023-04-16T14:18:31;11.90;99.90
67890;DHT22;54685;52.082;5.426;2023-04-16T14:20:58;11.90;99.90
67890;DHT22;54685;52.082;5.426;2023-04-16T14:23:30;11.90;99.90
67890;DHT22;54685;52.082;5.426;2023-04-16T14:25:57;11.90;99.90
67890;DHT22;54685;52.082;5.426;2023-04-16T14:28:24;11.90;99.90
67890;DHT22;54685;52.082;5.426;2023-04-16T14:30:51;12.00;99.90
67890;DHT22;54685;52.082;5.426;2023-04-16T14:33:17;12.10;99.90
67890;DHT22;54685;52.082;5.426;2023-04-16T14:35:44;12.10;99.90
67890;DHT22;54685;52.082;5.426;2023-04-16T14:38:11;12.10;99.90
67890;DHT22;54685;52.082;5.426;2023-04-16T14:40:38;12.30;99.90
67890;DHT22;54685;52.082;5.426;2023-04-16T14:43:05;12.30;99.90
67890;DHT22;54685;52.082;5.426;2023-04-16T14:45:31;12.30;99.90
67890;DHT22;54685;52.082;5.426;2023-04-16T14:47:58;12.30;99.90
67890;DHT22;54685;52.082;5.426;2023-04-16T14:50:25;12.30;99.90
67890;DHT22;54685;52.082;5.426;2023-04-16T14:52:52;12.30;99.90
67890;DHT22;54685;52.082;5.426;2023-04-16T14:55:20;12.30;99.90
67890;DHT22;54685;52.082;5.426;2023-04-16T14:57:47;12.20;99.90
67890;DHT22;54685;52.082;5.426;2023-04-16T15:00:14;12.20;99.90
67890;DHT22;54685;52.082;5.426;2023-04-16T15:02:43;12.20;99.90
67890;DHT22;54685;52.082;5.426;2023-04-16T15:05:10;12.20;99.90
67890;DHT22;54685;52.082;5.426;2023-04-16T15:07:37;12.20;99.90
67890;DHT22;54685;52.082;5.426;2023-04-16T15:10:08;12.30;99.90
67890;DHT22;54685;52.082;5.426;2023-04-16T15:12:37;12.40;99.90
67890;DHT22;54685;52.082;5.426;2023-04-16T15:15:07;12.40;99.90
67890;DHT22;54685;52.082;5.426;2023-04-16T15:17:34;12.40;99.90
67890;DHT22;54685;52.082;5.426;2023-04-16T15:20:01;12.50;99.90
67890;DHT22;54685;52.082;5.426;2023-04-16T15:22:34;12.50;99.90
67890;DHT22;54685;52.082;5.426;2023-04-16T15:25:01;12.50;99.90
67890;DHT22;54685;52.082;5.426;2023-04-16T15:27:28;12.60;99.90
67890;DHT22;54685;52.082;5.426;2023-04-16T15:29:56;12.60;99.90
67890;DHT22;54685;52.082;5.426;2023-04-16T15:32:22;12.60;99.90
67890;DHT22;54685;52.082;5.426;2023-04-16T15:34:49;12.70;99.90
67890;DHT22;54685;52.082;5.426;2023-04-16T15:37:16;12.70;99.90
67890;DHT22;54685;52.082;5.426;2023-04-16T15:39:43;12.60;99.90
67890;DHT22;54685;52.082;5.426;2023-04-16T15:42:10;12.50;99.90
67890;DHT22;54685;52.082;5.426;2023-04-16T15:44:37;12.50;99.90
67890;DHT22;54685;52.082;5.426;2023-04-16T15:47:03;12.50;99.90
67890;DHT22;54685;52.082;5.426;2023-04-16T15:49:31;12.50;99.90
67890;DHT22;54685;52.082;5.426;2023-04-16T15:51:58;12.30;99.90
67890;DHT22;54685;52.082;5.426;2023-04-16T15:54:25;12.30;99.90
67890;DHT22;54685;52.082;5.426;2023-04-16T15:56:52;12.20;99.90
67890;DHT22;54685;52.082;5.426;2023-04-16T15:59:19;12.20;99.90